Terminal Aerodrome Forecast
Issued by NWS

Home | Current Version | Previous Version | Text Only | Print | Product List | Glossary On
Versions: 1 2 3 4 5 6 7 8 9 10 11 12 13
000
FTUS45 KABQ 221100
TAFLVS
TAF
KLVS 221133Z 2212/2312 17006KT P6SM BKN150
     FM221400 22008KT P6SM VCSH BKN100
     FM221700 22011G18KT P6SM -SHRA BKN060 OVC100
     FM222200 23014G23KT P6SM SCT070 BKN100
     FM230200 23010KT P6SM VCSH BKN100
     FM230500 23010KT P6SM SCT100 SCT150=

USA.gov is the U.S. government's official web portal to all federal, state and local government web resources and services.